« Back
NWS Peachtree City, Ga » Text Product » MCN Terminal Aerodrome Forecast


Printer-friendly Version
Current Version              Previous Versions:   1  2  3  4  5  6  7  8  9  

Terminal Aerodrome Forecast

555
FTUS42 KFFC 281729
TAFMCN
TAF
KMCN 281729Z 2818/2918 07012KT P6SM SCT030 BKN040
     FM282000 07012KT P6SM BKN040 BKN250
     FM290000 08006KT P6SM SCT050 SCT250
     FM290900 10005KT 5SM BR BKN009
     FM291400 12010KT P6SM VCSH BKN015 OVC035 PROB30 2914/2918 6SM
      -SHRA BKN010=

USA.gov is the U.S. government's official web portal to all federal, state and local government web resources and services.